createdAt,value
2023-08-03T00:00:38.230Z,99902.53
2023-08-03T00:03:09.277Z,99905.34
2023-08-03T00:05:37.436Z,99897.16
2023-08-03T00:08:05.643Z,99897.41
2023-08-03T00:10:36.497Z,99896.03
2023-08-03T00:13:04.204Z,99900.94
2023-08-03T00:15:32.414Z,99907.16
2023-08-03T00:18:01.660Z,99901.47
2023-08-03T00:20:29.756Z,99907.97
2023-08-03T00:22:57.757Z,99896.78
2023-08-03T00:25:26.213Z,99899.69
2023-08-03T00:27:54.265Z,99903.75
2023-08-03T00:30:21.870Z,99908.41
2023-08-03T00:32:49.515Z,99897.44
2023-08-03T00:35:17.144Z,99913.94
2023-08-03T00:37:45.469Z,99915.72
2023-08-03T00:40:13.673Z,99910.19
2023-08-03T00:42:41.310Z,99914.41
2023-08-03T00:45:12.248Z,99913.19
2023-08-03T00:47:40.796Z,99916.09
2023-08-03T00:50:09.684Z,99913.00
2023-08-03T00:52:39.801Z,99916.47
2023-08-03T00:55:08.218Z,99911.47
2023-08-03T00:57:35.950Z,99903.94
2023-08-03T01:00:04.200Z,99906.38
2023-08-03T01:02:33.657Z,99915.50
2023-08-03T01:05:03.209Z,99914.16
2023-08-03T01:07:31.170Z,99917.53
2023-08-03T01:09:58.798Z,99915.72
2023-08-03T01:12:28.697Z,99911.41
2023-08-03T01:14:56.431Z,99907.78
2023-08-03T01:17:25.985Z,99901.13
2023-08-03T01:19:54.181Z,99896.06
2023-08-03T01:22:22.833Z,99889.56
2023-08-03T01:24:50.861Z,99895.22
2023-08-03T01:27:18.582Z,99889.47
2023-08-03T01:29:46.208Z,99888.81
2023-08-03T01:32:16.764Z,99892.66
2023-08-03T01:34:44.384Z,99883.44
2023-08-03T01:37:12.368Z,99881.78
2023-08-03T01:39:46.210Z,99881.16
2023-08-03T01:42:15.017Z,99872.09
2023-08-03T01:44:43.614Z,99870.63
2023-08-03T01:47:11.266Z,99868.59
2023-08-03T01:49:38.841Z,99874.56
2023-08-03T01:52:06.631Z,99867.81
2023-08-03T01:54:34.199Z,99861.28
2023-08-03T01:57:01.817Z,99861.41
2023-08-03T01:59:29.910Z,99861.19
2023-08-03T02:01:57.690Z,99856.75
2023-08-03T02:04:25.270Z,99861.53
2023-08-03T02:06:58.339Z,99859.72
2023-08-03T02:09:26.382Z,99865.19
2023-08-03T02:11:54.399Z,99863.38
2023-08-03T02:14:22.392Z,99860.22
2023-08-03T02:16:50.447Z,99860.00
2023-08-03T02:19:18.094Z,99855.56
2023-08-03T02:21:45.874Z,99849.50
2023-08-03T02:24:14.046Z,99847.94
2023-08-03T02:26:41.595Z,99850.72
2023-08-03T02:29:09.337Z,99849.84
2023-08-03T02:31:37.357Z,99846.47
2023-08-03T02:34:05.458Z,99846.47
2023-08-03T02:36:40.053Z,99852.28
2023-08-03T02:39:11.180Z,99863.25
2023-08-03T02:41:43.421Z,99862.84
2023-08-03T02:44:16.937Z,99857.72
2023-08-03T02:46:49.436Z,99857.28
2023-08-03T02:49:17.028Z,99858.47
2023-08-03T02:51:45.777Z,99851.84
2023-08-03T02:54:15.381Z,99852.13
2023-08-03T02:56:47.166Z,99839.09
2023-08-03T02:59:19.696Z,99836.78
2023-08-03T03:01:48.238Z,99839.19
2023-08-03T03:04:19.259Z,99844.19
2023-08-03T03:06:49.297Z,99843.25
2023-08-03T03:09:17.148Z,99851.00
2023-08-03T03:11:48.369Z,99854.66
2023-08-03T03:14:17.133Z,99855.28
2023-08-03T03:16:45.049Z,99861.16
2023-08-03T03:19:12.671Z,99845.72
2023-08-03T03:21:42.198Z,99853.78
2023-08-03T03:24:10.324Z,99847.28
2023-08-03T03:26:37.857Z,99851.34
2023-08-03T03:29:05.439Z,99862.44
2023-08-03T03:31:34.031Z,99858.88
2023-08-03T03:34:04.783Z,99860.84
2023-08-03T03:36:34.452Z,99861.47
2023-08-03T03:39:02.574Z,99867.41
2023-08-03T03:41:30.250Z,99870.28
2023-08-03T03:43:58.319Z,99870.72
2023-08-03T03:46:26.459Z,99867.00
2023-08-03T03:48:54.759Z,99867.69
2023-08-03T03:51:22.979Z,99874.50
2023-08-03T03:53:54.713Z,99874.56
2023-08-03T03:56:22.671Z,99877.13
2023-08-03T03:58:50.316Z,99879.25
2023-08-03T04:01:18.900Z,99881.22
2023-08-03T04:03:50.668Z,99881.59
2023-08-03T04:06:18.927Z,99880.72
2023-08-03T04:08:47.185Z,99883.25
2023-08-03T04:11:15.170Z,99880.88
2023-08-03T04:13:42.686Z,99872.34
2023-08-03T04:16:10.353Z,99874.28
2023-08-03T04:18:37.945Z,99879.91
2023-08-03T04:21:05.696Z,99876.66
2023-08-03T04:23:33.243Z,99881.59
2023-08-03T04:26:04.480Z,99881.94
2023-08-03T04:28:32.995Z,99886.63
2023-08-03T04:31:00.606Z,99879.84
2023-08-03T04:33:29.520Z,99877.78
2023-08-03T04:36:01.353Z,99876.13
2023-08-03T04:38:34.144Z,99877.94
2023-08-03T04:41:04.527Z,99880.75
2023-08-03T04:43:35.915Z,99884.91
2023-08-03T04:46:03.890Z,99877.34
2023-08-03T04:48:31.466Z,99873.66
2023-08-03T04:51:02.357Z,99875.13
2023-08-03T04:53:29.944Z,99872.75
2023-08-03T04:55:58.047Z,99874.03
2023-08-03T04:58:25.743Z,99877.94
2023-08-03T05:00:53.560Z,99885.03
2023-08-03T05:03:21.770Z,99884.97
2023-08-03T05:05:49.344Z,99889.28
2023-08-03T05:08:23.908Z,99896.00
2023-08-03T05:10:52.628Z,99897.34
2023-08-03T05:13:22.447Z,99887.78
2023-08-03T05:15:50.081Z,99891.19
2023-08-03T05:18:18.175Z,99891.78
2023-08-03T05:20:45.945Z,99899.53
2023-08-03T05:23:13.937Z,99897.97
2023-08-03T05:25:41.859Z,99898.31
2023-08-03T05:28:09.444Z,99903.63
2023-08-03T05:30:37.733Z,99904.72
2023-08-03T05:33:05.408Z,99911.41
2023-08-03T05:35:33.060Z,99917.09
2023-08-03T05:38:00.656Z,99920.63
2023-08-03T05:40:28.501Z,99918.19
2023-08-03T05:42:56.464Z,99919.53
2023-08-03T05:45:54.471Z,99923.69
2023-08-03T05:48:22.357Z,99925.97
2023-08-03T05:50:52.157Z,99929.84
2023-08-03T05:53:19.985Z,99933.03
2023-08-03T05:55:57.645Z,99928.50
2023-08-03T05:58:38.186Z,99933.38
2023-08-03T06:01:06.683Z,99931.84
2023-08-03T06:03:37.760Z,99932.66
2023-08-03T06:06:06.325Z,99936.19
2023-08-03T06:08:34.183Z,99934.88
2023-08-03T06:11:05.715Z,99933.63
2023-08-03T06:13:37.212Z,99928.84
2023-08-03T06:16:13.174Z,99925.22
2023-08-03T06:18:49.732Z,99927.91
2023-08-03T06:21:18.705Z,99932.50
2023-08-03T06:23:51.983Z,99936.00
2023-08-03T06:26:23.138Z,99934.13
2023-08-03T06:28:55.365Z,99933.41
2023-08-03T06:31:36.812Z,99932.31
2023-08-03T06:34:06.001Z,99942.56
2023-08-03T06:36:37.000Z,99935.06
2023-08-03T06:39:05.404Z,99933.59
2023-08-03T06:41:33.342Z,99929.56
2023-08-03T06:44:01.566Z,99925.06
2023-08-03T06:46:29.501Z,99925.56
2023-08-03T06:48:58.186Z,99925.28
2023-08-03T06:51:26.671Z,99922.06
2023-08-03T06:53:54.731Z,99922.38
2023-08-03T06:56:22.638Z,99925.22
2023-08-03T06:58:50.158Z,99927.88
2023-08-03T07:01:18.275Z,99935.88
2023-08-03T07:03:46.459Z,99937.84
2023-08-03T07:06:14.524Z,99934.84
2023-08-03T07:08:42.104Z,99930.84
2023-08-03T07:11:09.993Z,99941.53
2023-08-03T07:13:37.559Z,99937.03
2023-08-03T07:16:09.994Z,99942.81
2023-08-03T07:18:37.840Z,99939.66
2023-08-03T07:21:06.397Z,99940.06
2023-08-03T07:23:34.845Z,99948.53
2023-08-03T07:26:02.605Z,99940.78
2023-08-03T07:28:30.717Z,99943.66
2023-08-03T07:30:58.682Z,99940.94
2023-08-03T07:33:27.786Z,99941.44
2023-08-03T07:35:55.799Z,99944.81
2023-08-03T07:38:24.090Z,99948.00
2023-08-03T07:40:52.436Z,99944.25
2023-08-03T07:43:20.009Z,99946.19
2023-08-03T07:48:18.949Z,99957.19
2023-08-03T07:50:47.525Z,99949.41
2023-08-03T07:53:16.125Z,99947.69
2023-08-03T07:55:43.660Z,99947.69
2023-08-03T07:58:13.437Z,99940.34
2023-08-03T08:00:41.053Z,99951.03
2023-08-03T08:03:08.678Z,99949.59
2023-08-03T08:05:36.335Z,99944.97
2023-08-03T08:08:04.311Z,99944.25
2023-08-03T08:10:32.463Z,99941.59
2023-08-03T08:13:00.507Z,99940.50
2023-08-03T08:15:29.534Z,99950.56
2023-08-03T08:17:57.653Z,99940.47
2023-08-03T08:20:25.895Z,99949.44
2023-08-03T08:22:54.362Z,99946.72
2023-08-03T08:25:22.152Z,99953.34
2023-08-03T08:27:50.320Z,99945.66
2023-08-03T08:30:18.582Z,99950.97
2023-08-03T08:32:46.566Z,99958.59
2023-08-03T08:35:14.808Z,99960.50
2023-08-03T08:37:42.433Z,99961.69
2023-08-03T08:40:14.566Z,99963.03
2023-08-03T08:42:42.377Z,99967.81
2023-08-03T08:45:12.410Z,99959.69
2023-08-03T08:47:41.374Z,99967.34
2023-08-03T08:56:05.538Z,99961.47
2023-08-03T09:00:44.474Z,99971.94
2023-08-03T09:03:14.456Z,99956.81
2023-08-03T09:08:15.647Z,99959.31
2023-08-03T09:10:54.471Z,99961.38
2023-08-03T09:13:36.456Z,99958.16
2023-08-03T09:16:04.703Z,99952.22
2023-08-03T09:18:33.692Z,99956.00
2023-08-03T09:28:55.212Z,99964.56
2023-08-03T09:31:29.184Z,99973.38
2023-08-03T09:33:59.541Z,99961.41
2023-08-03T09:44:17.725Z,99957.63
2023-08-03T09:46:50.431Z,99961.09
2023-08-03T09:49:18.589Z,99960.03
2023-08-03T09:59:49.145Z,99969.00
2023-08-03T10:02:24.521Z,99974.13
2023-08-03T10:04:58.738Z,99962.00
2023-08-03T10:07:37.471Z,99963.00
2023-08-03T10:10:06.317Z,99958.41
2023-08-03T10:12:45.420Z,99968.84
2023-08-03T10:15:17.429Z,99971.03
2023-08-03T10:17:47.393Z,99965.16
2023-08-03T10:20:16.082Z,99971.03
2023-08-03T10:23:10.044Z,99960.06
2023-08-03T10:26:02.074Z,99957.19
2023-08-03T10:28:39.393Z,99959.13
2023-08-03T10:31:17.618Z,99948.78
2023-08-03T10:33:47.765Z,99945.44
2023-08-03T10:36:27.494Z,99942.84
2023-08-03T10:38:56.720Z,99942.09
2023-08-03T10:41:37.709Z,99954.25
2023-08-03T10:44:08.528Z,99948.22
2023-08-03T10:46:42.364Z,99945.28
2023-08-03T10:49:20.522Z,99948.44
2023-08-03T10:51:55.768Z,99946.31
2023-08-03T10:54:30.444Z,99964.22
2023-08-03T10:57:15.168Z,99961.63
2023-08-03T10:59:47.362Z,99953.16
2023-08-03T11:02:31.039Z,99946.38
2023-08-03T11:05:03.780Z,99940.94
2023-08-03T11:07:39.260Z,99947.38
2023-08-03T11:10:12.385Z,99940.63
2023-08-03T11:12:42.437Z,99948.09
2023-08-03T11:15:15.485Z,99944.88
2023-08-03T11:17:49.122Z,99945.09
2023-08-03T11:20:16.798Z,99942.00
2023-08-03T11:22:44.831Z,99941.88
2023-08-03T11:25:13.433Z,99944.69
2023-08-03T11:27:42.001Z,99947.53
2023-08-03T11:30:10.390Z,99943.16
2023-08-03T11:32:40.002Z,99940.59
2023-08-03T11:35:10.901Z,99929.41
2023-08-03T11:37:40.209Z,99924.13
2023-08-03T11:40:10.500Z,99930.53
2023-08-03T11:42:41.101Z,99913.06
2023-08-03T11:45:09.399Z,99914.75
2023-08-03T11:47:48.402Z,99921.66
2023-08-03T11:50:22.046Z,99921.16
2023-08-03T11:52:50.250Z,99923.66
2023-08-03T11:55:34.006Z,99923.31
2023-08-03T11:58:12.832Z,99924.94
2023-08-03T12:00:43.998Z,99912.03
2023-08-03T12:03:19.687Z,99900.28
2023-08-03T12:06:07.369Z,99913.94
2023-08-03T12:08:48.839Z,99911.34
2023-08-03T12:11:18.233Z,99902.72
2023-08-03T12:13:47.787Z,99894.31
2023-08-03T12:16:15.754Z,99892.94
2023-08-03T12:18:43.772Z,99877.34
2023-08-03T12:21:11.428Z,99881.09
2023-08-03T12:23:39.020Z,99889.22
2023-08-03T12:26:08.996Z,99893.63
2023-08-03T12:28:36.589Z,99878.88
2023-08-03T12:31:04.662Z,99881.06
2023-08-03T12:33:32.424Z,99878.72
2023-08-03T12:36:00.134Z,99875.16
2023-08-03T12:38:27.765Z,99879.38
2023-08-03T12:40:55.749Z,99874.09
2023-08-03T12:43:23.372Z,99870.72
2023-08-03T12:45:51.039Z,99878.53
2023-08-03T12:48:18.962Z,99874.22
2023-08-03T12:50:46.962Z,99876.72
2023-08-03T12:53:15.666Z,99876.03
2023-08-03T12:55:43.713Z,99861.28
2023-08-03T12:58:12.761Z,99865.00
2023-08-03T13:00:40.400Z,99869.59
2023-08-03T13:03:08.038Z,99868.59
2023-08-03T13:05:38.616Z,99865.88
2023-08-03T13:08:07.140Z,99855.81
2023-08-03T13:10:35.313Z,99859.91
2023-08-03T13:13:03.378Z,99865.09
2023-08-03T13:15:31.641Z,99870.00
2023-08-03T13:18:01.000Z,99862.34
2023-08-03T13:20:29.020Z,99866.28
2023-08-03T13:22:57.884Z,99854.41
2023-08-03T13:25:26.258Z,99861.78
2023-08-03T13:27:53.824Z,99855.47
2023-08-03T13:30:21.787Z,99851.31
2023-08-03T13:32:49.533Z,99849.03
2023-08-03T13:35:18.016Z,99849.44
2023-08-03T13:37:46.538Z,99853.91
2023-08-03T13:40:15.733Z,99854.69
2023-08-03T13:42:43.724Z,99852.25
2023-08-03T13:45:11.812Z,99856.75
2023-08-03T13:47:41.668Z,99861.13
2023-08-03T13:50:10.102Z,99861.81
2023-08-03T13:52:38.057Z,99848.34
2023-08-03T13:55:06.164Z,99844.66
2023-08-03T13:57:35.727Z,99850.69
2023-08-03T14:00:05.103Z,99844.28
2023-08-03T14:05:06.664Z,99839.16
2023-08-03T14:22:43.784Z,99832.88
2023-08-03T14:30:20.364Z,99826.78
2023-08-03T14:32:49.606Z,99813.81
2023-08-03T14:37:49.106Z,99820.97
2023-08-03T14:40:16.818Z,99820.94
2023-08-03T14:42:55.441Z,99819.13
2023-08-03T14:45:35.134Z,99813.91
2023-08-03T14:48:06.667Z,99822.38
2023-08-03T14:50:35.653Z,99820.06
2023-08-03T14:53:03.935Z,99824.91
2023-08-03T14:55:32.475Z,99823.44
2023-08-03T14:58:00.071Z,99819.75
2023-08-03T15:00:28.233Z,99820.13
2023-08-03T15:02:56.319Z,99816.03
2023-08-03T15:05:24.538Z,99824.13
2023-08-03T15:07:53.397Z,99815.34
2023-08-03T15:10:20.973Z,99814.94
2023-08-03T15:12:48.533Z,99808.47
2023-08-03T15:15:17.413Z,99804.75
2023-08-03T15:17:47.923Z,99808.56
2023-08-03T15:20:31.654Z,99805.41
2023-08-03T15:23:03.745Z,99802.66
2023-08-03T15:25:32.337Z,99799.84
2023-08-03T15:28:02.278Z,99802.81
2023-08-03T15:30:59.209Z,99795.69
2023-08-03T15:33:21.379Z,99785.38
2023-08-03T15:35:49.827Z,99783.81
2023-08-03T15:38:20.761Z,99778.72
2023-08-03T15:41:01.795Z,99800.66
2023-08-03T15:43:37.425Z,99786.84
2023-08-03T15:46:12.186Z,99793.25
2023-08-03T15:49:03.295Z,99792.72
2023-08-03T15:51:37.125Z,99778.41
2023-08-03T15:54:10.755Z,99797.09
2023-08-03T15:56:43.149Z,99784.31
2023-08-03T15:59:11.700Z,99790.88
2023-08-03T16:01:40.012Z,99779.31
2023-08-03T16:04:07.769Z,99785.94
2023-08-03T16:06:35.969Z,99778.25
2023-08-03T16:09:04.609Z,99776.63
2023-08-03T16:11:51.543Z,99771.19
2023-08-03T16:14:20.819Z,99768.66
2023-08-03T16:16:50.089Z,99758.13
2023-08-03T16:19:18.554Z,99763.50
2023-08-03T16:21:46.176Z,99775.84
2023-08-03T16:24:14.281Z,99771.94
2023-08-03T16:26:42.575Z,99767.78
2023-08-03T16:29:10.138Z,99769.66
2023-08-03T16:31:39.143Z,99766.91
2023-08-03T16:34:12.388Z,99758.69
2023-08-03T16:36:42.268Z,99769.94
2023-08-03T16:39:10.843Z,99765.28
2023-08-03T16:41:39.125Z,99771.75
2023-08-03T16:44:07.152Z,99772.66
2023-08-03T16:46:34.776Z,99767.84
2023-08-03T16:49:02.365Z,99770.94
2023-08-03T16:51:30.350Z,99778.50
2023-08-03T16:54:00.666Z,99785.31
2023-08-03T16:56:28.805Z,99786.22
2023-08-03T16:58:56.364Z,99762.09
2023-08-03T17:01:24.419Z,99772.69
2023-08-03T17:03:52.023Z,99776.94
2023-08-03T17:06:20.167Z,99780.66
2023-08-03T17:08:47.784Z,99779.84
2023-08-03T17:11:15.524Z,99775.22
2023-08-03T17:13:43.586Z,99778.56
2023-08-03T17:16:11.940Z,99775.63
2023-08-03T17:18:40.479Z,99782.47
2023-08-03T17:21:08.384Z,99772.53
2023-08-03T17:23:36.492Z,99764.03
2023-08-03T17:26:04.118Z,99771.47
2023-08-03T17:28:32.499Z,99780.34
2023-08-03T17:31:05.081Z,99778.16
2023-08-03T17:33:33.370Z,99780.13
2023-08-03T17:36:09.274Z,99780.03
2023-08-03T17:38:37.390Z,99794.50
2023-08-03T17:41:05.103Z,99789.53
2023-08-03T17:43:32.980Z,99785.47
2023-08-03T17:46:08.245Z,99793.06
2023-08-03T17:48:36.427Z,99802.78
2023-08-03T17:51:11.208Z,99798.03
2023-08-03T17:53:41.132Z,99811.53
2023-08-03T17:56:10.623Z,99808.53
2023-08-03T17:58:45.873Z,99808.63
2023-08-03T18:01:23.972Z,99804.69
2023-08-03T18:03:52.484Z,99805.09
2023-08-03T18:06:25.409Z,99809.38
2023-08-03T18:08:54.522Z,99813.25
2023-08-03T18:11:22.655Z,99817.94
2023-08-03T18:13:52.324Z,99813.25
2023-08-03T18:16:20.637Z,99817.63
2023-08-03T18:18:49.923Z,99829.59
2023-08-03T18:21:23.633Z,99825.34
2023-08-03T18:23:55.626Z,99829.03
2023-08-03T18:26:25.462Z,99826.81
2023-08-03T18:28:56.377Z,99827.09
2023-08-03T18:31:24.579Z,99835.41
2023-08-03T18:33:53.814Z,99834.06
2023-08-03T18:36:22.001Z,99839.97
2023-08-03T18:38:51.863Z,99839.25
2023-08-03T18:41:21.564Z,99849.16
2023-08-03T18:43:51.101Z,99851.00
2023-08-03T18:46:21.973Z,99851.19
2023-08-03T18:48:50.219Z,99853.84
2023-08-03T18:51:20.286Z,99855.34
2023-08-03T18:53:50.061Z,99856.16
2023-08-03T18:56:18.758Z,99863.38
2023-08-03T18:58:48.480Z,99868.41
2023-08-03T19:01:17.680Z,99876.84
2023-08-03T19:03:47.493Z,99878.34
2023-08-03T19:06:17.973Z,99884.69
2023-08-03T19:08:47.822Z,99889.22
2023-08-03T19:11:16.735Z,99889.66
2023-08-03T19:13:45.246Z,99891.41
2023-08-03T19:16:13.284Z,99897.56
2023-08-03T19:18:43.830Z,99894.28
2023-08-03T19:21:13.203Z,99891.28
2023-08-03T19:23:41.323Z,99897.00
2023-08-03T19:26:11.425Z,99900.25
2023-08-03T19:28:39.324Z,99903.53
2023-08-03T19:31:07.541Z,99901.75
2023-08-03T19:33:36.279Z,99907.75
2023-08-03T19:36:04.556Z,99909.22
2023-08-03T19:38:32.753Z,99905.75
2023-08-03T19:41:01.024Z,99918.16
2023-08-03T19:43:29.527Z,99911.81
2023-08-03T19:45:57.179Z,99917.16
2023-08-03T19:48:26.392Z,99917.38
2023-08-03T19:59:31.640Z,99922.81
2023-08-03T20:06:16.098Z,99920.34
2023-08-03T20:11:14.980Z,99910.34
2023-08-03T20:16:41.284Z,99910.66
2023-08-03T20:21:32.157Z,99918.44
2023-08-03T20:23:59.824Z,99904.22
2023-08-03T20:26:35.562Z,99906.09
2023-08-03T20:29:05.794Z,99908.47
2023-08-03T20:31:35.138Z,99915.31
2023-08-03T20:36:34.855Z,99922.06
2023-08-03T20:49:06.933Z,99926.31
2023-08-03T20:51:35.768Z,99926.50
2023-08-03T20:56:52.054Z,99933.25
2023-08-03T20:59:19.686Z,99940.19
2023-08-03T21:01:47.932Z,99927.75
2023-08-03T21:04:15.868Z,99940.56
2023-08-03T21:06:44.796Z,99952.63
2023-08-03T21:09:12.385Z,99947.56
2023-08-03T21:11:40.068Z,99936.41
2023-08-03T21:14:08.779Z,99939.13
2023-08-03T21:16:36.934Z,99947.53
2023-08-03T21:21:36.385Z,99939.38
2023-08-03T21:24:09.346Z,99941.59
2023-08-03T21:26:39.745Z,99938.44
2023-08-03T21:29:08.265Z,99941.06
2023-08-03T21:31:39.351Z,99933.34
2023-08-03T21:34:08.028Z,99939.22
2023-08-03T21:36:36.250Z,99940.63
2023-08-03T21:39:05.107Z,99937.03
2023-08-03T21:41:32.995Z,99949.38
2023-08-03T21:44:01.078Z,99941.75
2023-08-03T21:46:28.888Z,99939.06
2023-08-03T21:48:56.919Z,99939.44
2023-08-03T21:51:24.851Z,99947.97
2023-08-03T21:53:52.348Z,99937.41
2023-08-03T21:56:20.754Z,99940.28
2023-08-03T21:58:50.313Z,99941.44
2023-08-03T22:01:18.160Z,99931.78
2023-08-03T22:03:46.240Z,99935.13
2023-08-03T22:06:13.918Z,99936.91
2023-08-03T22:08:41.497Z,99927.31
2023-08-03T22:11:15.795Z,99927.41
2023-08-03T22:13:45.079Z,99939.50
2023-08-03T22:16:12.896Z,99937.41
2023-08-03T22:18:41.463Z,99941.41
2023-08-03T22:21:10.458Z,99942.66
2023-08-03T22:23:39.571Z,99949.13
2023-08-03T22:26:17.784Z,99943.72
2023-08-03T22:28:47.058Z,99946.88
2023-08-03T22:31:15.319Z,99946.56
2023-08-03T22:33:43.552Z,99953.75
2023-08-03T22:36:13.858Z,99951.97
2023-08-03T22:38:46.161Z,99946.22
2023-08-03T22:41:14.616Z,99956.75
2023-08-03T22:43:42.323Z,99949.72
2023-08-03T22:46:10.063Z,99949.72
2023-08-03T22:48:38.137Z,99949.63
2023-08-03T22:51:06.147Z,99953.16
2023-08-03T22:53:33.666Z,99952.78
2023-08-03T22:56:03.644Z,99957.25
2023-08-03T22:58:32.945Z,99958.06
2023-08-03T23:01:00.555Z,99957.13
2023-08-03T23:03:29.476Z,99960.53
2023-08-03T23:05:57.237Z,99952.56
2023-08-03T23:08:26.121Z,99957.78
2023-08-03T23:10:54.246Z,99950.75
2023-08-03T23:13:23.125Z,99943.38
2023-08-03T23:15:51.223Z,99946.28
2023-08-03T23:18:18.773Z,99949.22
2023-08-03T23:20:46.383Z,99947.56
2023-08-03T23:23:14.475Z,99948.22
2023-08-03T23:25:42.536Z,99944.38
2023-08-03T23:28:10.850Z,99937.72
2023-08-03T23:30:38.484Z,99936.97
2023-08-03T23:33:06.697Z,99929.16
2023-08-03T23:35:34.322Z,99940.19
2023-08-03T23:38:02.338Z,99933.38
2023-08-03T23:40:30.418Z,99936.06
2023-08-03T23:42:58.430Z,99940.63
2023-08-03T23:45:26.468Z,99939.09
2023-08-03T23:47:54.962Z,99942.97
2023-08-03T23:50:23.470Z,99938.66
2023-08-03T23:52:51.097Z,99945.06
2023-08-03T23:55:18.835Z,99946.38
2023-08-03T23:57:46.927Z,99955.69
